sensor_id;sensor_type;location;lat;lon;timestamp;temperature;humidity
9919;DHT22;4998;51.024;13.828;2022-08-21T00:00:21;22.90;99.90
9919;DHT22;4998;51.024;13.828;2022-08-21T00:02:51;22.90;99.90
9919;DHT22;4998;51.024;13.828;2022-08-21T00:05:21;22.90;99.90
9919;DHT22;4998;51.024;13.828;2022-08-21T00:07:48;22.90;99.90
9919;DHT22;4998;51.024;13.828;2022-08-21T00:10:16;22.90;99.90
9919;DHT22;4998;51.024;13.828;2022-08-21T00:12:44;22.90;99.90
9919;DHT22;4998;51.024;13.828;2022-08-21T00:15:14;22.80;99.90
9919;DHT22;4998;51.024;13.828;2022-08-21T00:17:41;22.80;99.90
9919;DHT22;4998;51.024;13.828;2022-08-21T00:20:10;22.80;99.90
9919;DHT22;4998;51.024;13.828;2022-08-21T00:22:39;22.80;99.90
9919;DHT22;4998;51.024;13.828;2022-08-21T00:25:07;22.80;99.90
9919;DHT22;4998;51.024;13.828;2022-08-21T00:27:35;22.80;99.90
9919;DHT22;4998;51.024;13.828;2022-08-21T00:30:03;22.90;99.90
9919;DHT22;4998;51.024;13.828;2022-08-21T00:32:30;22.80;99.90
9919;DHT22;4998;51.024;13.828;2022-08-21T00:34:57;22.90;99.90
9919;DHT22;4998;51.024;13.828;2022-08-21T00:37:24;22.90;99.90
9919;DHT22;4998;51.024;13.828;2022-08-21T00:39:52;22.80;99.90
9919;DHT22;4998;51.024;13.828;2022-08-21T00:42:19;22.90;99.90
9919;DHT22;4998;51.024;13.828;2022-08-21T00:44:47;22.90;99.90
9919;DHT22;4998;51.024;13.828;2022-08-21T00:47:15;22.90;99.90
9919;DHT22;4998;51.024;13.828;2022-08-21T00:49:43;22.90;99.90
9919;DHT22;4998;51.024;13.828;2022-08-21T00:52:14;22.90;99.90
9919;DHT22;4998;51.024;13.828;2022-08-21T00:54:42;22.90;99.90
9919;DHT22;4998;51.024;13.828;2022-08-21T00:57:15;22.90;99.90
9919;DHT22;4998;51.024;13.828;2022-08-21T00:59:45;22.90;99.90
9919;DHT22;4998;51.024;13.828;2022-08-21T01:02:13;22.90;99.90
9919;DHT22;4998;51.024;13.828;2022-08-21T01:04:40;22.90;99.90
9919;DHT22;4998;51.024;13.828;2022-08-21T01:07:07;22.90;99.90
9919;DHT22;4998;51.024;13.828;2022-08-21T01:09:35;22.90;99.90
9919;DHT22;4998;51.024;13.828;2022-08-21T01:12:02;22.90;99.90
9919;DHT22;4998;51.024;13.828;2022-08-21T01:14:31;22.80;99.90
9919;DHT22;4998;51.024;13.828;2022-08-21T01:16:59;22.80;99.90
9919;DHT22;4998;51.024;13.828;2022-08-21T01:19:29;22.80;99.90
9919;DHT22;4998;51.024;13.828;2022-08-21T01:21:57;22.80;99.90
9919;DHT22;4998;51.024;13.828;2022-08-21T01:24:25;22.80;99.90
9919;DHT22;4998;51.024;13.828;2022-08-21T01:26:52;22.80;99.90
9919;DHT22;4998;51.024;13.828;2022-08-21T01:29:26;22.80;99.90
9919;DHT22;4998;51.024;13.828;2022-08-21T01:31:55;22.80;99.90
9919;DHT22;4998;51.024;13.828;2022-08-21T01:34:22;22.80;99.90
9919;DHT22;4998;51.024;13.828;2022-08-21T01:36:49;22.80;99.90
9919;DHT22;4998;51.024;13.828;2022-08-21T01:39:17;22.70;99.90
9919;DHT22;4998;51.024;13.828;2022-08-21T01:41:44;22.70;99.90
9919;DHT22;4998;51.024;13.828;2022-08-21T01:44:11;22.70;99.90
9919;DHT22;4998;51.024;13.828;2022-08-21T01:46:38;22.70;99.90
9919;DHT22;4998;51.024;13.828;2022-08-21T01:49:05;22.70;99.90
9919;DHT22;4998;51.024;13.828;2022-08-21T01:51:32;22.70;99.90
9919;DHT22;4998;51.024;13.828;2022-08-21T01:53:59;22.60;99.90
9919;DHT22;4998;51.024;13.828;2022-08-21T01:56:27;22.60;99.90
9919;DHT22;4998;51.024;13.828;2022-08-21T01:58:54;22.60;99.90
9919;DHT22;4998;51.024;13.828;2022-08-21T02:01:21;22.60;99.90
9919;DHT22;4998;51.024;13.828;2022-08-21T02:03:48;22.50;99.90
9919;DHT22;4998;51.024;13.828;2022-08-21T02:06:15;22.50;99.90
9919;DHT22;4998;51.024;13.828;2022-08-21T02:08:44;22.50;99.90
9919;DHT22;4998;51.024;13.828;2022-08-21T02:11:11;22.50;99.90
9919;DHT22;4998;51.024;13.828;2022-08-21T02:13:39;22.40;99.90
9919;DHT22;4998;51.024;13.828;2022-08-21T02:16:07;22.40;99.90
9919;DHT22;4998;51.024;13.828;2022-08-21T02:18:34;22.40;99.90
9919;DHT22;4998;51.024;13.828;2022-08-21T02:21:01;22.40;99.90
9919;DHT22;4998;51.024;13.828;2022-08-21T02:23:29;22.30;99.90
9919;DHT22;4998;51.024;13.828;2022-08-21T02:25:57;22.30;99.90
9919;DHT22;4998;51.024;13.828;2022-08-21T02:28:24;22.20;99.90
9919;DHT22;4998;51.024;13.828;2022-08-21T02:30:54;22.20;99.90
9919;DHT22;4998;51.024;13.828;2022-08-21T02:33:21;22.20;99.90
9919;DHT22;4998;51.024;13.828;2022-08-21T02:35:48;22.20;99.90
9919;DHT22;4998;51.024;13.828;2022-08-21T02:38:18;22.20;99.90
9919;DHT22;4998;51.024;13.828;2022-08-21T02:40:48;22.20;99.90
9919;DHT22;4998;51.024;13.828;2022-08-21T02:43:16;22.20;99.90
9919;DHT22;4998;51.024;13.828;2022-08-21T02:45:44;22.20;99.90
9919;DHT22;4998;51.024;13.828;2022-08-21T02:48:16;22.20;99.90
9919;DHT22;4998;51.024;13.828;2022-08-21T02:50:48;22.30;99.90
9919;DHT22;4998;51.024;13.828;2022-08-21T02:53:16;22.20;99.90
9919;DHT22;4998;51.024;13.828;2022-08-21T02:55:44;22.20;99.90
9919;DHT22;4998;51.024;13.828;2022-08-21T02:58:12;22.20;99.90
9919;DHT22;4998;51.024;13.828;2022-08-21T03:00:39;22.20;99.90
9919;DHT22;4998;51.024;13.828;2022-08-21T03:03:06;22.20;99.90
9919;DHT22;4998;51.024;13.828;2022-08-21T03:05:36;22.20;99.90
9919;DHT22;4998;51.024;13.828;2022-08-21T03:08:05;22.20;99.90
9919;DHT22;4998;51.024;13.828;2022-08-21T03:10:35;22.20;99.90
9919;DHT22;4998;51.024;13.828;2022-08-21T03:13:02;22.20;99.90
9919;DHT22;4998;51.024;13.828;2022-08-21T03:15:29;22.20;99.90
9919;DHT22;4998;51.024;13.828;2022-08-21T03:17:56;22.20;99.90
9919;DHT22;4998;51.024;13.828;2022-08-21T03:20:25;22.20;99.90
9919;DHT22;4998;51.024;13.828;2022-08-21T03:22:54;22.10;99.90
9919;DHT22;4998;51.024;13.828;2022-08-21T03:25:23;22.10;99.90
9919;DHT22;4998;51.024;13.828;2022-08-21T03:27:50;22.10;99.90
9919;DHT22;4998;51.024;13.828;2022-08-21T03:30:19;22.10;99.90
9919;DHT22;4998;51.024;13.828;2022-08-21T03:32:47;22.20;99.90
9919;DHT22;4998;51.024;13.828;2022-08-21T03:35:14;22.10;99.90
9919;DHT22;4998;51.024;13.828;2022-08-21T03:37:41;22.10;99.90
9919;DHT22;4998;51.024;13.828;2022-08-21T03:40:12;22.20;99.90
9919;DHT22;4998;51.024;13.828;2022-08-21T03:42:39;22.20;99.90
9919;DHT22;4998;51.024;13.828;2022-08-21T03:45:07;22.20;99.90
9919;DHT22;4998;51.024;13.828;2022-08-21T03:47:34;22.10;99.90
9919;DHT22;4998;51.024;13.828;2022-08-21T03:50:01;22.10;99.90
9919;DHT22;4998;51.024;13.828;2022-08-21T03:52:29;22.10;99.90
9919;DHT22;4998;51.024;13.828;2022-08-21T03:54:56;22.10;99.90
9919;DHT22;4998;51.024;13.828;2022-08-21T03:57:24;22.10;99.90
9919;DHT22;4998;51.024;13.828;2022-08-21T03:59:51;22.00;99.90
9919;DHT22;4998;51.024;13.828;2022-08-21T04:02:20;22.00;99.90
9919;DHT22;4998;51.024;13.828;2022-08-21T04:04:47;22.00;99.90
9919;DHT22;4998;51.024;13.828;2022-08-21T04:07:14;22.00;99.90
9919;DHT22;4998;51.024;13.828;2022-08-21T04:09:41;22.00;99.90
9919;DHT22;4998;51.024;13.828;2022-08-21T04:12:08;22.00;99.90
9919;DHT22;4998;51.024;13.828;2022-08-21T04:14:36;22.00;99.90
9919;DHT22;4998;51.024;13.828;2022-08-21T04:17:03;22.00;99.90
9919;DHT22;4998;51.024;13.828;2022-08-21T04:19:30;22.00;99.90
9919;DHT22;4998;51.024;13.828;2022-08-21T04:21:57;22.00;99.90
9919;DHT22;4998;51.024;13.828;2022-08-21T04:24:24;22.00;99.90
9919;DHT22;4998;51.024;13.828;2022-08-21T04:26:51;22.00;99.90
9919;DHT22;4998;51.024;13.828;2022-08-21T04:29:18;22.00;99.90
9919;DHT22;4998;51.024;13.828;2022-08-21T04:31:46;22.00;99.90
9919;DHT22;4998;51.024;13.828;2022-08-21T04:34:13;22.00;99.90
9919;DHT22;4998;51.024;13.828;2022-08-21T04:36:40;22.00;99.90
9919;DHT22;4998;51.024;13.828;2022-08-21T04:39:07;21.90;99.90
9919;DHT22;4998;51.024;13.828;2022-08-21T04:41:34;22.00;99.90
9919;DHT22;4998;51.024;13.828;2022-08-21T04:44:02;21.90;99.90
9919;DHT22;4998;51.024;13.828;2022-08-21T04:46:29;21.90;99.90
9919;DHT22;4998;51.024;13.828;2022-08-21T04:48:58;22.00;99.90
9919;DHT22;4998;51.024;13.828;2022-08-21T04:51:27;22.00;99.90
9919;DHT22;4998;51.024;13.828;2022-08-21T04:53:58;22.00;99.90
9919;DHT22;4998;51.024;13.828;2022-08-21T04:56:29;22.00;99.90
9919;DHT22;4998;51.024;13.828;2022-08-21T04:59:01;22.00;99.90
9919;DHT22;4998;51.024;13.828;2022-08-21T05:01:31;22.00;99.90
9919;DHT22;4998;51.024;13.828;2022-08-21T05:04:02;22.00;99.90
9919;DHT22;4998;51.024;13.828;2022-08-21T05:06:35;22.10;99.90
9919;DHT22;4998;51.024;13.828;2022-08-21T05:09:04;22.10;99.90
9919;DHT22;4998;51.024;13.828;2022-08-21T05:11:31;22.10;99.90
9919;DHT22;4998;51.024;13.828;2022-08-21T05:14:00;22.20;99.90
9919;DHT22;4998;51.024;13.828;2022-08-21T05:16:27;22.20;99.90
9919;DHT22;4998;51.024;13.828;2022-08-21T05:18:54;22.20;99.90
9919;DHT22;4998;51.024;13.828;2022-08-21T05:21:22;22.30;99.90
9919;DHT22;4998;51.024;13.828;2022-08-21T05:23:49;22.30;99.90
9919;DHT22;4998;51.024;13.828;2022-08-21T05:26:16;22.30;99.90
9919;DHT22;4998;51.024;13.828;2022-08-21T05:28:43;22.30;99.90
9919;DHT22;4998;51.024;13.828;2022-08-21T05:31:10;22.30;99.90
9919;DHT22;4998;51.024;13.828;2022-08-21T05:33:37;22.30;99.90
9919;DHT22;4998;51.024;13.828;2022-08-21T05:36:04;22.40;99.90
9919;DHT22;4998;51.024;13.828;2022-08-21T05:38:32;22.40;99.90
9919;DHT22;4998;51.024;13.828;2022-08-21T05:40:59;22.40;99.90
9919;DHT22;4998;51.024;13.828;2022-08-21T05:43:27;22.40;99.90
9919;DHT22;4998;51.024;13.828;2022-08-21T05:45:54;22.40;99.90
9919;DHT22;4998;51.024;13.828;2022-08-21T05:48:22;22.40;99.90
9919;DHT22;4998;51.024;13.828;2022-08-21T05:50:51;22.40;99.90
9919;DHT22;4998;51.024;13.828;2022-08-21T05:53:19;22.40;99.90
9919;DHT22;4998;51.024;13.828;2022-08-21T05:55:48;22.50;99.90
9919;DHT22;4998;51.024;13.828;2022-08-21T05:58:17;22.50;99.90
9919;DHT22;4998;51.024;13.828;2022-08-21T06:00:45;22.50;99.90
9919;DHT22;4998;51.024;13.828;2022-08-21T06:03:13;22.50;99.90
9919;DHT22;4998;51.024;13.828;2022-08-21T06:05:40;22.50;99.90
9919;DHT22;4998;51.024;13.828;2022-08-21T06:08:07;22.50;99.90
9919;DHT22;4998;51.024;13.828;2022-08-21T06:10:34;22.50;99.90
9919;DHT22;4998;51.024;13.828;2022-08-21T06:13:02;22.50;99.90
9919;DHT22;4998;51.024;13.828;2022-08-21T06:15:30;22.60;99.90
9919;DHT22;4998;51.024;13.828;2022-08-21T06:17:57;22.60;99.90
9919;DHT22;4998;51.024;13.828;2022-08-21T06:20:23;22.60;99.90
9919;DHT22;4998;51.024;13.828;2022-08-21T06:22:51;22.70;99.90
9919;DHT22;4998;51.024;13.828;2022-08-21T06:25:18;22.70;99.90
9919;DHT22;4998;51.024;13.828;2022-08-21T06:27:45;22.70;99.90
9919;DHT22;4998;51.024;13.828;2022-08-21T06:30:14;22.90;99.90
9919;DHT22;4998;51.024;13.828;2022-08-21T06:32:41;22.80;99.90
9919;DHT22;4998;51.024;13.828;2022-08-21T06:35:08;22.80;99.90
9919;DHT22;4998;51.024;13.828;2022-08-21T06:37:35;22.80;99.90
9919;DHT22;4998;51.024;13.828;2022-08-21T06:40:04;22.90;99.90
9919;DHT22;4998;51.024;13.828;2022-08-21T06:42:31;22.90;99.90
9919;DHT22;4998;51.024;13.828;2022-08-21T06:44:58;23.00;99.90
9919;DHT22;4998;51.024;13.828;2022-08-21T06:47:26;23.00;99.90
9919;DHT22;4998;51.024;13.828;2022-08-21T06:49:53;23.00;99.90
9919;DHT22;4998;51.024;13.828;2022-08-21T06:52:20;23.00;99.90
9919;DHT22;4998;51.024;13.828;2022-08-21T06:54:47;23.10;99.90
9919;DHT22;4998;51.024;13.828;2022-08-21T06:57:14;23.10;99.90
9919;DHT22;4998;51.024;13.828;2022-08-21T06:59:40;23.10;99.90
9919;DHT22;4998;51.024;13.828;2022-08-21T07:02:07;23.10;99.90
9919;DHT22;4998;51.024;13.828;2022-08-21T07:04:36;23.10;99.90
9919;DHT22;4998;51.024;13.828;2022-08-21T07:07:03;23.20;99.90
9919;DHT22;4998;51.024;13.828;2022-08-21T07:09:29;23.20;99.90
9919;DHT22;4998;51.024;13.828;2022-08-21T07:11:56;23.20;99.90
9919;DHT22;4998;51.024;13.828;2022-08-21T07:14:23;23.30;99.90
9919;DHT22;4998;51.024;13.828;2022-08-21T07:16:50;23.40;99.90
9919;DHT22;4998;51.024;13.828;2022-08-21T07:19:18;23.40;99.90
9919;DHT22;4998;51.024;13.828;2022-08-21T07:21:46;23.40;99.90
9919;DHT22;4998;51.024;13.828;2022-08-21T07:24:13;23.50;99.90
9919;DHT22;4998;51.024;13.828;2022-08-21T07:26:40;23.50;99.90
9919;DHT22;4998;51.024;13.828;2022-08-21T07:29:07;23.50;99.90
9919;DHT22;4998;51.024;13.828;2022-08-21T07:31:35;23.50;99.90
9919;DHT22;4998;51.024;13.828;2022-08-21T07:34:02;23.50;99.90
9919;DHT22;4998;51.024;13.828;2022-08-21T07:36:29;23.50;99.90
9919;DHT22;4998;51.024;13.828;2022-08-21T07:38:57;23.50;99.90
9919;DHT22;4998;51.024;13.828;2022-08-21T07:41:26;23.50;99.90
9919;DHT22;4998;51.024;13.828;2022-08-21T07:43:55;23.50;99.90
9919;DHT22;4998;51.024;13.828;2022-08-21T07:46:23;23.50;99.90
9919;DHT22;4998;51.024;13.828;2022-08-21T07:48:51;23.50;99.90
9919;DHT22;4998;51.024;13.828;2022-08-21T07:51:19;23.50;99.90
9919;DHT22;4998;51.024;13.828;2022-08-21T07:53:48;23.50;99.90
9919;DHT22;4998;51.024;13.828;2022-08-21T07:56:18;23.50;99.90
9919;DHT22;4998;51.024;13.828;2022-08-21T07:58:45;23.50;99.90
9919;DHT22;4998;51.024;13.828;2022-08-21T08:01:12;23.50;99.90
9919;DHT22;4998;51.024;13.828;2022-08-21T08:03:39;23.50;99.90
9919;DHT22;4998;51.024;13.828;2022-08-21T08:06:07;23.50;99.90
9919;DHT22;4998;51.024;13.828;2022-08-21T08:08:37;23.50;99.90
9919;DHT22;4998;51.024;13.828;2022-08-21T08:11:05;23.60;99.90
9919;DHT22;4998;51.024;13.828;2022-08-21T08:13:38;23.60;99.90
9919;DHT22;4998;51.024;13.828;2022-08-21T08:16:06;23.70;99.90
9919;DHT22;4998;51.024;13.828;2022-08-21T08:18:33;23.60;99.90
9919;DHT22;4998;51.024;13.828;2022-08-21T08:21:00;23.60;99.90
9919;DHT22;4998;51.024;13.828;2022-08-21T08:23:27;23.60;99.90
9919;DHT22;4998;51.024;13.828;2022-08-21T08:25:56;23.60;99.90
9919;DHT22;4998;51.024;13.828;2022-08-21T08:28:22;23.60;99.90
9919;DHT22;4998;51.024;13.828;2022-08-21T08:30:51;23.70;99.90
9919;DHT22;4998;51.024;13.828;2022-08-21T08:33:18;23.60;99.90
9919;DHT22;4998;51.024;13.828;2022-08-21T08:35:47;23.70;99.90
9919;DHT22;4998;51.024;13.828;2022-08-21T08:38:15;23.70;99.90
9919;DHT22;4998;51.024;13.828;2022-08-21T08:40:49;23.80;99.90
9919;DHT22;4998;51.024;13.828;2022-08-21T08:43:16;23.80;99.90
9919;DHT22;4998;51.024;13.828;2022-08-21T08:45:46;23.90;99.90
9919;DHT22;4998;51.024;13.828;2022-08-21T08:48:36;23.90;99.90
9919;DHT22;4998;51.024;13.828;2022-08-21T08:51:11;24.00;99.90
9919;DHT22;4998;51.024;13.828;2022-08-21T08:53:49;24.00;99.90
9919;DHT22;4998;51.024;13.828;2022-08-21T08:56:22;24.10;99.90
9919;DHT22;4998;51.024;13.828;2022-08-21T08:58:50;24.10;99.90
9919;DHT22;4998;51.024;13.828;2022-08-21T09:01:19;24.10;99.90
9919;DHT22;4998;51.024;13.828;2022-08-21T09:03:49;24.10;99.90
9919;DHT22;4998;51.024;13.828;2022-08-21T09:06:28;24.10;99.90
9919;DHT22;4998;51.024;13.828;2022-08-21T09:09:04;24.20;99.90
9919;DHT22;4998;51.024;13.828;2022-08-21T09:11:41;24.20;99.90
9919;DHT22;4998;51.024;13.828;2022-08-21T09:14:16;24.20;99.90
9919;DHT22;4998;51.024;13.828;2022-08-21T09:16:48;24.20;99.90
9919;DHT22;4998;51.024;13.828;2022-08-21T09:19:28;24.30;99.90
9919;DHT22;4998;51.024;13.828;2022-08-21T09:22:04;24.30;99.90
9919;DHT22;4998;51.024;13.828;2022-08-21T09:24:44;24.30;99.90
9919;DHT22;4998;51.024;13.828;2022-08-21T09:27:15;24.30;99.90
9919;DHT22;4998;51.024;13.828;2022-08-21T09:29:45;24.30;99.90
9919;DHT22;4998;51.024;13.828;2022-08-21T09:32:16;24.40;99.90
9919;DHT22;4998;51.024;13.828;2022-08-21T09:34:57;24.40;99.90
9919;DHT22;4998;51.024;13.828;2022-08-21T09:37:25;24.50;99.90
9919;DHT22;4998;51.024;13.828;2022-08-21T09:39:52;24.50;99.90
9919;DHT22;4998;51.024;13.828;2022-08-21T09:42:23;24.60;99.90
9919;DHT22;4998;51.024;13.828;2022-08-21T09:45:10;24.60;99.90
9919;DHT22;4998;51.024;13.828;2022-08-21T09:47:37;24.70;99.90
9919;DHT22;4998;51.024;13.828;2022-08-21T09:50:12;24.80;99.90
9919;DHT22;4998;51.024;13.828;2022-08-21T09:52:49;24.80;99.90
9919;DHT22;4998;51.024;13.828;2022-08-21T09:55:21;24.80;99.90
9919;DHT22;4998;51.024;13.828;2022-08-21T09:58:07;24.90;99.90
9919;DHT22;4998;51.024;13.828;2022-08-21T10:00:35;24.90;99.90
9919;DHT22;4998;51.024;13.828;2022-08-21T10:03:15;24.90;99.90
9919;DHT22;4998;51.024;13.828;2022-08-21T10:05:54;24.90;99.90
9919;DHT22;4998;51.024;13.828;2022-08-21T10:08:23;25.00;99.90
9919;DHT22;4998;51.024;13.828;2022-08-21T10:10:53;25.00;99.90
9919;DHT22;4998;51.024;13.828;2022-08-21T10:13:28;25.00;99.90
9919;DHT22;4998;51.024;13.828;2022-08-21T10:16:02;25.10;99.90
9919;DHT22;4998;51.024;13.828;2022-08-21T10:18:38;25.10;99.70
9919;DHT22;4998;51.024;13.828;2022-08-21T10:21:19;25.10;98.90
9919;DHT22;4998;51.024;13.828;2022-08-21T10:24:00;25.20;98.70
9919;DHT22;4998;51.024;13.828;2022-08-21T10:26:38;25.20;98.40
9919;DHT22;4998;51.024;13.828;2022-08-21T10:29:18;25.20;97.90
9919;DHT22;4998;51.024;13.828;2022-08-21T10:31:51;25.20;98.00
9919;DHT22;4998;51.024;13.828;2022-08-21T10:34:31;25.20;97.40
9919;DHT22;4998;51.024;13.828;2022-08-21T10:37:11;25.20;96.70
9919;DHT22;4998;51.024;13.828;2022-08-21T10:39:51;25.20;95.90
9919;DHT22;4998;51.024;13.828;2022-08-21T10:42:28;25.20;95.40
9919;DHT22;4998;51.024;13.828;2022-08-21T10:45:06;25.20;94.20
9919;DHT22;4998;51.024;13.828;2022-08-21T10:47:41;25.20;93.70
9919;DHT22;4998;51.024;13.828;2022-08-21T10:50:17;25.20;93.30
9919;DHT22;4998;51.024;13.828;2022-08-21T10:53:05;25.20;92.90
9919;DHT22;4998;51.024;13.828;2022-08-21T10:55:39;25.20;92.80
9919;DHT22;4998;51.024;13.828;2022-08-21T10:58:10;25.20;92.70
9919;DHT22;4998;51.024;13.828;2022-08-21T11:00:41;25.20;92.20
9919;DHT22;4998;51.024;13.828;2022-08-21T11:03:12;25.20;92.30
9919;DHT22;4998;51.024;13.828;2022-08-21T11:05:42;25.20;91.70
9919;DHT22;4998;51.024;13.828;2022-08-21T11:08:15;25.20;90.90
9919;DHT22;4998;51.024;13.828;2022-08-21T11:10:48;25.20;91.40
9919;DHT22;4998;51.024;13.828;2022-08-21T11:13:21;25.20;91.10
9919;DHT22;4998;51.024;13.828;2022-08-21T11:16:03;25.20;91.30
9919;DHT22;4998;51.024;13.828;2022-08-21T11:18:36;25.30;91.80
9919;DHT22;4998;51.024;13.828;2022-08-21T11:21:21;25.30;90.30
9919;DHT22;4998;51.024;13.828;2022-08-21T11:23:59;25.40;90.80
9919;DHT22;4998;51.024;13.828;2022-08-21T11:26:31;25.40;90.70
9919;DHT22;4998;51.024;13.828;2022-08-21T11:29:05;25.50;90.60
9919;DHT22;4998;51.024;13.828;2022-08-21T11:31:43;25.50;90.10
9919;DHT22;4998;51.024;13.828;2022-08-21T11:34:23;25.60;89.70
9919;DHT22;4998;51.024;13.828;2022-08-21T11:36:59;25.60;89.10
9919;DHT22;4998;51.024;13.828;2022-08-21T11:39:38;25.70;87.60
9919;DHT22;4998;51.024;13.828;2022-08-21T11:42:15;25.70;86.50
9919;DHT22;4998;51.024;13.828;2022-08-21T11:44:49;25.70;84.50
9919;DHT22;4998;51.024;13.828;2022-08-21T11:47:28;25.70;83.80
9919;DHT22;4998;51.024;13.828;2022-08-21T11:50:10;25.80;80.90
9919;DHT22;4998;51.024;13.828;2022-08-21T11:52:43;25.80;81.30
9919;DHT22;4998;51.024;13.828;2022-08-21T11:55:18;25.80;81.60
9919;DHT22;4998;51.024;13.828;2022-08-21T11:57:51;25.80;83.30
9919;DHT22;4998;51.024;13.828;2022-08-21T12:00:23;25.90;81.00
9919;DHT22;4998;51.024;13.828;2022-08-21T12:02:55;26.00;79.70
9919;DHT22;4998;51.024;13.828;2022-08-21T12:05:26;26.00;80.50
9919;DHT22;4998;51.024;13.828;2022-08-21T12:08:03;26.10;78.30
9919;DHT22;4998;51.024;13.828;2022-08-21T12:10:36;26.10;77.70
9919;DHT22;4998;51.024;13.828;2022-08-21T12:13:23;26.20;77.10
9919;DHT22;4998;51.024;13.828;2022-08-21T12:15:51;26.20;76.90
9919;DHT22;4998;51.024;13.828;2022-08-21T12:18:24;26.20;75.30
9919;DHT22;4998;51.024;13.828;2022-08-21T12:21:05;26.20;72.80
9919;DHT22;4998;51.024;13.828;2022-08-21T12:23:46;26.20;72.80
9919;DHT22;4998;51.024;13.828;2022-08-21T12:26:23;26.20;71.80
9919;DHT22;4998;51.024;13.828;2022-08-21T12:29:02;26.20;72.40
9919;DHT22;4998;51.024;13.828;2022-08-21T12:31:29;26.30;72.10
9919;DHT22;4998;51.024;13.828;2022-08-21T12:34:00;26.30;72.80
9919;DHT22;4998;51.024;13.828;2022-08-21T12:36:40;26.30;70.40
9919;DHT22;4998;51.024;13.828;2022-08-21T12:39:13;26.40;69.50
9919;DHT22;4998;51.024;13.828;2022-08-21T12:41:47;26.40;68.70
9919;DHT22;4998;51.024;13.828;2022-08-21T12:44:16;26.40;67.90
9919;DHT22;4998;51.024;13.828;2022-08-21T12:46:46;26.50;67.10
9919;DHT22;4998;51.024;13.828;2022-08-21T12:49:19;26.50;66.30
9919;DHT22;4998;51.024;13.828;2022-08-21T12:51:54;26.50;66.50
9919;DHT22;4998;51.024;13.828;2022-08-21T12:54:25;26.60;65.70
9919;DHT22;4998;51.024;13.828;2022-08-21T12:57:02;26.60;64.90
9919;DHT22;4998;51.024;13.828;2022-08-21T12:59:30;26.70;63.50
9919;DHT22;4998;51.024;13.828;2022-08-21T13:01:59;26.70;63.20
9919;DHT22;4998;51.024;13.828;2022-08-21T13:04:33;26.70;61.80
9919;DHT22;4998;51.024;13.828;2022-08-21T13:07:05;26.60;60.90
9919;DHT22;4998;51.024;13.828;2022-08-21T13:09:33;26.60;60.80
9919;DHT22;4998;51.024;13.828;2022-08-21T13:12:01;26.60;61.30
9919;DHT22;4998;51.024;13.828;2022-08-21T13:14:32;26.60;60.80
9919;DHT22;4998;51.024;13.828;2022-08-21T13:17:01;26.60;60.40
9919;DHT22;4998;51.024;13.828;2022-08-21T13:19:30;26.60;59.80
9919;DHT22;4998;51.024;13.828;2022-08-21T13:21:58;26.60;59.50
9919;DHT22;4998;51.024;13.828;2022-08-21T13:24:26;26.70;59.70
9919;DHT22;4998;51.024;13.828;2022-08-21T13:26:55;26.70;60.20
9919;DHT22;4998;51.024;13.828;2022-08-21T13:29:29;26.70;59.90
9919;DHT22;4998;51.024;13.828;2022-08-21T13:31:59;26.70;60.00
9919;DHT22;4998;51.024;13.828;2022-08-21T13:34:30;26.80;59.30
9919;DHT22;4998;51.024;13.828;2022-08-21T13:36:59;26.80;59.30
9919;DHT22;4998;51.024;13.828;2022-08-21T13:39:27;26.90;59.20
9919;DHT22;4998;51.024;13.828;2022-08-21T13:41:56;26.90;59.30
9919;DHT22;4998;51.024;13.828;2022-08-21T13:44:34;26.90;58.40
9919;DHT22;4998;51.024;13.828;2022-08-21T13:47:03;26.90;58.40
9919;DHT22;4998;51.024;13.828;2022-08-21T13:49:32;26.80;58.60
9919;DHT22;4998;51.024;13.828;2022-08-21T13:51:59;26.80;59.10
9919;DHT22;4998;51.024;13.828;2022-08-21T13:54:32;26.80;59.00
9919;DHT22;4998;51.024;13.828;2022-08-21T13:57:00;26.80;58.80
9919;DHT22;4998;51.024;13.828;2022-08-21T13:59:31;26.80;59.30
9919;DHT22;4998;51.024;13.828;2022-08-21T14:02:00;26.80;58.80
9919;DHT22;4998;51.024;13.828;2022-08-21T14:04:33;26.80;59.10
9919;DHT22;4998;51.024;13.828;2022-08-21T14:07:02;26.80;58.60
9919;DHT22;4998;51.024;13.828;2022-08-21T14:09:42;26.80;58.80
9919;DHT22;4998;51.024;13.828;2022-08-21T14:12:14;26.80;57.40
9919;DHT22;4998;51.024;13.828;2022-08-21T14:14:44;26.80;57.50
9919;DHT22;4998;51.024;13.828;2022-08-21T14:17:14;26.80;57.30
9919;DHT22;4998;51.024;13.828;2022-08-21T14:19:52;26.80;56.70
9919;DHT22;4998;51.024;13.828;2022-08-21T14:22:27;26.80;57.20
9919;DHT22;4998;51.024;13.828;2022-08-21T14:25:00;26.80;57.00
9919;DHT22;4998;51.024;13.828;2022-08-21T14:27:29;26.90;56.30
9919;DHT22;4998;51.024;13.828;2022-08-21T14:30:00;27.00;55.40
9919;DHT22;4998;51.024;13.828;2022-08-21T14:32:29;27.00;55.40
9919;DHT22;4998;51.024;13.828;2022-08-21T14:35:01;27.10;54.30
9919;DHT22;4998;51.024;13.828;2022-08-21T14:37:28;27.10;54.60
9919;DHT22;4998;51.024;13.828;2022-08-21T14:39:55;27.10;55.10
9919;DHT22;4998;51.024;13.828;2022-08-21T14:42:22;27.20;55.20
9919;DHT22;4998;51.024;13.828;2022-08-21T14:44:49;27.20;56.20
9919;DHT22;4998;51.024;13.828;2022-08-21T14:47:18;27.20;55.30
9919;DHT22;4998;51.024;13.828;2022-08-21T14:49:44;27.30;54.70
9919;DHT22;4998;51.024;13.828;2022-08-21T14:52:11;27.30;54.60
9919;DHT22;4998;51.024;13.828;2022-08-21T14:54:38;27.40;54.30
9919;DHT22;4998;51.024;13.828;2022-08-21T14:57:09;27.40;53.70
9919;DHT22;4998;51.024;13.828;2022-08-21T14:59:38;27.40;53.20
9919;DHT22;4998;51.024;13.828;2022-08-21T15:02:06;27.30;53.10
9919;DHT22;4998;51.024;13.828;2022-08-21T15:04:35;27.40;53.40
9919;DHT22;4998;51.024;13.828;2022-08-21T15:07:03;27.40;53.20
9919;DHT22;4998;51.024;13.828;2022-08-21T15:09:29;27.40;53.40
9919;DHT22;4998;51.024;13.828;2022-08-21T15:11:58;27.50;53.20
9919;DHT22;4998;51.024;13.828;2022-08-21T15:14:28;27.50;52.90
9919;DHT22;4998;51.024;13.828;2022-08-21T15:16:55;27.50;51.70
9919;DHT22;4998;51.024;13.828;2022-08-21T15:19:23;27.50;52.00
9919;DHT22;4998;51.024;13.828;2022-08-21T15:21:51;27.50;52.20
9919;DHT22;4998;51.024;13.828;2022-08-21T15:24:18;27.60;51.70
9919;DHT22;4998;51.024;13.828;2022-08-21T15:26:45;27.60;52.90
9919;DHT22;4998;51.024;13.828;2022-08-21T15:29:12;27.60;52.00
9919;DHT22;4998;51.024;13.828;2022-08-21T15:31:51;27.70;51.90
9919;DHT22;4998;51.024;13.828;2022-08-21T15:34:19;27.70;51.20
9919;DHT22;4998;51.024;13.828;2022-08-21T15:36:46;27.70;51.30
9919;DHT22;4998;51.024;13.828;2022-08-21T15:39:14;27.70;50.90
9919;DHT22;4998;51.024;13.828;2022-08-21T15:41:41;27.60;50.60
9919;DHT22;4998;51.024;13.828;2022-08-21T15:44:09;27.60;50.90
9919;DHT22;4998;51.024;13.828;2022-08-21T15:46:37;27.60;50.60
9919;DHT22;4998;51.024;13.828;2022-08-21T15:49:05;27.50;50.20
9919;DHT22;4998;51.024;13.828;2022-08-21T15:51:32;27.50;50.00
9919;DHT22;4998;51.024;13.828;2022-08-21T15:53:59;27.40;50.10
9919;DHT22;4998;51.024;13.828;2022-08-21T15:56:34;27.40;50.10
9919;DHT22;4998;51.024;13.828;2022-08-21T15:59:05;27.40;49.40
9919;DHT22;4998;51.024;13.828;2022-08-21T16:01:33;27.40;49.60